createdAt,value
2022-11-28T00:01:34.034Z,98205.66
2022-11-28T00:04:01.118Z,98202.13
2022-11-28T00:06:28.830Z,98193.50
2022-11-28T00:08:59.369Z,98200.16
2022-11-28T00:11:26.336Z,98194.16
2022-11-28T00:13:54.276Z,98178.00
2022-11-28T00:16:23.415Z,98176.69
2022-11-28T00:18:53.786Z,98200.72
2022-11-28T00:21:21.939Z,98188.44
2022-11-28T00:23:49.472Z,98186.59
2022-11-28T00:26:33.449Z,98202.88
2022-11-28T00:29:02.720Z,98179.66
2022-11-28T00:31:42.064Z,98182.31
2022-11-28T00:34:11.119Z,98173.38
2022-11-28T00:36:38.093Z,98176.66
2022-11-28T00:39:05.963Z,98176.91
2022-11-28T00:41:35.607Z,98179.00
2022-11-28T00:44:02.536Z,98170.75
2022-11-28T00:46:30.010Z,98180.41
2022-11-28T00:48:58.919Z,98186.59
2022-11-28T00:51:29.715Z,98187.50
2022-11-28T00:54:02.841Z,98183.50
2022-11-28T00:56:36.952Z,98182.47
2022-11-28T00:59:04.990Z,98189.22
2022-11-28T01:01:41.296Z,98185.38
2022-11-28T01:04:12.406Z,98184.72
2022-11-28T01:06:43.194Z,98184.50
2022-11-28T01:09:18.208Z,98195.94
2022-11-28T01:11:49.008Z,98182.09
2022-11-28T01:14:19.194Z,98181.78
2022-11-28T01:16:46.318Z,98189.25
2022-11-28T01:19:13.878Z,98187.47
2022-11-28T01:21:41.436Z,98194.16
2022-11-28T01:24:08.502Z,98189.19
2022-11-28T01:26:35.638Z,98170.44
2022-11-28T01:29:02.595Z,98155.19
2022-11-28T01:31:30.409Z,98149.34
2022-11-28T01:33:58.385Z,98159.66
2022-11-28T01:36:26.724Z,98159.22
2022-11-28T01:38:53.890Z,98140.06
2022-11-28T01:41:25.416Z,98150.19
2022-11-28T01:44:15.579Z,98156.66
2022-11-28T01:46:42.933Z,98150.38
2022-11-28T01:49:17.913Z,98137.88
2022-11-28T01:51:51.350Z,98138.22
2022-11-28T01:54:20.898Z,98150.19
2022-11-28T01:56:57.448Z,98147.25
2022-11-28T01:59:30.503Z,98136.94
2022-11-28T02:01:57.452Z,98137.97
2022-11-28T02:04:28.034Z,98139.00
2022-11-28T02:06:55.491Z,98143.91
2022-11-28T02:09:22.841Z,98148.66
2022-11-28T02:12:04.409Z,98139.03
2022-11-28T02:15:17.504Z,98127.25
2022-11-28T02:18:25.100Z,98132.31
2022-11-28T02:21:46.249Z,98146.63
2022-11-28T02:24:45.950Z,98135.41
2022-11-28T02:27:38.849Z,98132.22
2022-11-28T02:30:20.026Z,98130.34
2022-11-28T02:33:18.556Z,98128.50
2022-11-28T02:35:45.349Z,98111.47
2022-11-28T02:38:40.133Z,98099.56
2022-11-28T02:41:39.404Z,98090.03
2022-11-28T02:44:14.217Z,98089.00
2022-11-28T02:47:30.044Z,98092.09
2022-11-28T02:50:25.949Z,98089.41
2022-11-28T02:53:00.518Z,98076.78
2022-11-28T02:55:27.785Z,98076.44
2022-11-28T02:57:55.749Z,98079.56
2022-11-28T03:00:32.409Z,98061.34
2022-11-28T03:03:14.418Z,98053.63
2022-11-28T03:05:59.100Z,98045.03
2022-11-28T03:08:50.550Z,98038.69
2022-11-28T03:11:46.594Z,98040.13
2022-11-28T03:14:53.646Z,98036.84
2022-11-28T03:17:42.732Z,98055.22
2022-11-28T03:20:28.113Z,98040.78
2022-11-28T03:23:03.856Z,98052.94
2022-11-28T03:25:58.845Z,98043.50
2022-11-28T03:29:03.641Z,98044.91
2022-11-28T03:32:08.676Z,98037.19
2022-11-28T03:34:41.252Z,98050.34
2022-11-28T03:37:21.071Z,98035.94
2022-11-28T03:39:59.469Z,98040.06
2022-11-28T03:42:30.108Z,98042.00
2022-11-28T03:45:25.720Z,98050.25
2022-11-28T03:48:10.544Z,98046.03
2022-11-28T03:51:13.414Z,98043.59
2022-11-28T03:53:54.640Z,98032.78
2022-11-28T03:56:40.505Z,98029.88
2022-11-28T03:59:14.347Z,98027.06
2022-11-28T04:02:10.500Z,98035.78
2022-11-28T04:04:55.977Z,98045.72
2022-11-28T04:07:37.856Z,98036.75
2022-11-28T04:10:39.432Z,98033.69
2022-11-28T04:13:20.958Z,98030.75
2022-11-28T04:16:08.092Z,98040.22
2022-11-28T04:18:54.537Z,98032.03
2022-11-28T04:21:43.893Z,98004.53
2022-11-28T04:24:25.636Z,98009.28
2022-11-28T04:26:59.523Z,98024.69
2022-11-28T04:29:31.859Z,97999.88
2022-11-28T04:32:00.669Z,98011.72
2022-11-28T04:34:30.890Z,98008.63
2022-11-28T04:37:02.461Z,98002.50
2022-11-28T04:39:35.035Z,97994.00
2022-11-28T04:42:18.426Z,98002.06
2022-11-28T04:45:17.448Z,98007.19
2022-11-28T04:47:45.049Z,98013.56
2022-11-28T04:50:13.527Z,98010.66
2022-11-28T04:53:12.830Z,98004.84
2022-11-28T04:55:47.451Z,98017.53
2022-11-28T04:58:37.023Z,98019.63
2022-11-28T05:01:11.988Z,98018.84
2022-11-28T05:03:42.850Z,98027.81
2022-11-28T05:06:10.229Z,98024.16
2022-11-28T05:08:37.347Z,98027.88
2022-11-28T05:11:04.327Z,98023.19
2022-11-28T05:13:31.280Z,98005.81
2022-11-28T05:16:01.563Z,98012.59
2022-11-28T05:18:28.622Z,98007.22
2022-11-28T05:20:58.653Z,98008.53
2022-11-28T05:23:25.652Z,98008.63
2022-11-28T05:25:52.632Z,98010.59
2022-11-28T05:28:19.635Z,98001.28
2022-11-28T05:31:00.745Z,98003.50
2022-11-28T05:33:30.503Z,98009.75
2022-11-28T05:36:12.888Z,98001.59
2022-11-28T05:38:41.610Z,97989.94
2022-11-28T05:41:08.949Z,98001.59
2022-11-28T05:43:36.217Z,97995.88
2022-11-28T05:46:06.725Z,97994.34
2022-11-28T05:48:33.861Z,98003.19
2022-11-28T05:51:00.835Z,98005.97
2022-11-28T05:53:27.744Z,97999.34
2022-11-28T05:55:54.693Z,98001.41
2022-11-28T05:58:21.671Z,98000.91
2022-11-28T06:00:48.617Z,97996.38
2022-11-28T06:03:15.807Z,98000.13
2022-11-28T06:05:44.507Z,97996.19
2022-11-28T06:08:12.608Z,97996.06
2022-11-28T06:10:40.129Z,98010.75
2022-11-28T06:13:07.149Z,98014.84
2022-11-28T06:15:38.137Z,98007.84
2022-11-28T06:18:05.945Z,98007.03
2022-11-28T06:20:35.594Z,97996.84
2022-11-28T06:23:02.562Z,97995.47
2022-11-28T06:25:29.804Z,98009.72
2022-11-28T06:27:56.835Z,98009.63
2022-11-28T06:30:23.865Z,98016.19
2022-11-28T06:32:50.824Z,98022.16
2022-11-28T06:35:17.901Z,98017.81
2022-11-28T06:37:44.864Z,98023.97
2022-11-28T06:40:12.102Z,98032.00
2022-11-28T06:42:39.088Z,98038.63
2022-11-28T06:45:07.132Z,98024.16
2022-11-28T06:47:34.127Z,98028.97
2022-11-28T06:50:01.284Z,98033.59
2022-11-28T06:52:29.097Z,98029.34
2022-11-28T06:54:56.019Z,98030.22
2022-11-28T06:57:22.954Z,98024.91
2022-11-28T06:59:50.695Z,98027.16
2022-11-28T07:02:17.785Z,98029.59
2022-11-28T07:04:44.977Z,98024.38
2022-11-28T07:07:16.299Z,98035.63
2022-11-28T07:09:44.142Z,98039.97
2022-11-28T07:12:11.283Z,98040.22
2022-11-28T07:14:38.403Z,98037.00
2022-11-28T07:17:05.520Z,98040.59
2022-11-28T07:19:32.528Z,98042.38
2022-11-28T07:21:59.502Z,98031.69
2022-11-28T07:24:26.741Z,98023.72
2022-11-28T07:26:53.741Z,98021.47
2022-11-28T07:29:20.755Z,98015.31
2022-11-28T07:31:48.167Z,98021.13
2022-11-28T07:34:15.253Z,98008.69
2022-11-28T07:36:42.521Z,98029.59
2022-11-28T07:39:13.803Z,98042.66
2022-11-28T07:41:40.737Z,98033.28
2022-11-28T07:44:07.694Z,98041.81
2022-11-28T07:46:35.478Z,98042.72
2022-11-28T07:49:04.259Z,98047.47
2022-11-28T07:51:33.945Z,98043.09
2022-11-28T07:54:02.268Z,98043.03
2022-11-28T07:57:04.096Z,98039.56
2022-11-28T07:59:19.908Z,98051.91
2022-11-28T08:01:46.884Z,98043.91
2022-11-28T08:04:13.946Z,98047.44
2022-11-28T08:06:43.474Z,98046.06
2022-11-28T08:09:12.060Z,98039.88
2022-11-28T08:11:39.367Z,98042.31
2022-11-28T08:14:06.687Z,98046.81
2022-11-28T08:16:34.696Z,98035.47
2022-11-28T08:19:02.364Z,98037.50
2022-11-28T08:21:32.608Z,98025.47
2022-11-28T08:24:01.799Z,98023.28
2022-11-28T08:26:31.205Z,98033.97
2022-11-28T08:28:59.809Z,98032.50
2022-11-28T08:31:36.941Z,98036.59
2022-11-28T08:34:08.287Z,98036.72
2022-11-28T08:36:35.230Z,98031.91
2022-11-28T08:39:22.754Z,98039.03
2022-11-28T08:41:50.839Z,98038.50
2022-11-28T08:44:17.793Z,98039.59
2022-11-28T08:46:44.729Z,98038.44
2022-11-28T08:49:11.709Z,98041.88
2022-11-28T08:51:38.665Z,98041.16
2022-11-28T08:54:05.899Z,98040.69
2022-11-28T08:56:34.323Z,98032.53
2022-11-28T08:59:01.531Z,98037.25
2022-11-28T09:01:29.475Z,98034.94
2022-11-28T09:03:57.640Z,98031.72
2022-11-28T09:06:24.973Z,98032.47
2022-11-28T09:08:53.538Z,98038.19
2022-11-28T09:11:22.695Z,98028.22
2022-11-28T09:13:50.312Z,98039.00
2022-11-28T09:16:18.310Z,98040.19
2022-11-28T09:18:45.447Z,98036.66
2022-11-28T09:21:14.592Z,98041.50
2022-11-28T09:23:44.015Z,98053.41
2022-11-28T09:26:18.898Z,98056.19
2022-11-28T09:28:46.288Z,98060.22
2022-11-28T09:31:16.602Z,98065.31
2022-11-28T09:33:44.974Z,98066.59
2022-11-28T09:36:18.907Z,98059.50
2022-11-28T09:38:46.328Z,98066.88
2022-11-28T09:42:03.006Z,98055.84
2022-11-28T09:44:58.042Z,98058.25
2022-11-28T09:47:29.290Z,98045.63
2022-11-28T09:50:10.621Z,98040.53
2022-11-28T09:53:10.059Z,98037.91
2022-11-28T09:55:40.607Z,98042.00
2022-11-28T09:58:46.086Z,98048.84
2022-11-28T10:01:21.128Z,98057.69
2022-11-28T10:04:09.343Z,98051.38
2022-11-28T10:07:16.348Z,98052.00
2022-11-28T10:10:25.282Z,98050.84
2022-11-28T10:13:18.788Z,98052.31
2022-11-28T10:16:21.350Z,98040.06
2022-11-28T10:18:54.468Z,98038.03
2022-11-28T10:21:43.727Z,98039.94
2022-11-28T10:24:20.560Z,98052.44
2022-11-28T10:26:52.820Z,98054.41
2022-11-28T10:29:33.394Z,98050.63
2022-11-28T10:32:03.927Z,98042.41
2022-11-28T10:34:42.490Z,98038.03
2022-11-28T10:37:26.384Z,98028.63
2022-11-28T10:39:53.843Z,98024.75
2022-11-28T10:42:39.383Z,98023.53
2022-11-28T10:45:27.724Z,98034.66
2022-11-28T10:48:40.137Z,98042.78
2022-11-28T10:51:25.423Z,98046.34
2022-11-28T10:54:19.064Z,98038.44
2022-11-28T10:57:18.625Z,98042.22
2022-11-28T11:00:21.233Z,98034.56
2022-11-28T11:02:55.009Z,98040.81
2022-11-28T11:05:34.205Z,98039.63
2022-11-28T11:08:20.028Z,98031.09
2022-11-28T11:10:51.046Z,98039.22
2022-11-28T11:13:33.094Z,98036.94
2022-11-28T11:16:08.434Z,98030.19
2022-11-28T11:18:51.541Z,98033.50
2022-11-28T11:21:23.001Z,98032.72
2022-11-28T11:24:17.222Z,98045.72
2022-11-28T11:26:48.438Z,98042.34
2022-11-28T11:29:23.875Z,98060.31
2022-11-28T11:31:53.354Z,98041.78
2022-11-28T11:34:23.934Z,98034.91
2022-11-28T11:36:51.458Z,98036.09
2022-11-28T11:39:25.283Z,98027.72
2022-11-28T11:42:11.596Z,98046.03
2022-11-28T11:44:38.723Z,98039.00
2022-11-28T11:47:10.327Z,98029.13
2022-11-28T11:49:48.830Z,98026.81
2022-11-28T11:52:26.988Z,98033.97
2022-11-28T11:55:16.568Z,98034.91
2022-11-28T11:57:51.428Z,98023.31
2022-11-28T12:00:24.257Z,98023.91
2022-11-28T12:03:00.954Z,98031.06
2022-11-28T12:05:52.297Z,98020.03
2022-11-28T12:08:33.816Z,98025.28
2022-11-28T12:11:24.827Z,98022.75
2022-11-28T12:13:52.354Z,98013.19
2022-11-28T12:16:34.033Z,98014.38
2022-11-28T12:19:21.933Z,98008.28
2022-11-28T12:22:06.227Z,98004.63
2022-11-28T12:24:45.631Z,98006.41
2022-11-28T12:27:31.100Z,98007.41
2022-11-28T12:30:19.703Z,98005.72
2022-11-28T12:33:15.826Z,97995.19
2022-11-28T12:36:03.143Z,97995.41
2022-11-28T12:38:50.327Z,97995.69
2022-11-28T12:41:52.725Z,97994.13
2022-11-28T12:45:08.384Z,97997.50
2022-11-28T12:47:56.595Z,98008.94
2022-11-28T12:50:42.999Z,98006.19
2022-11-28T12:53:57.255Z,97999.94
2022-11-28T12:56:36.131Z,98010.59
2022-11-28T12:59:40.099Z,98002.44
2022-11-28T13:02:37.478Z,98003.50
2022-11-28T13:05:34.026Z,98003.28
2022-11-28T13:08:48.779Z,97998.75
2022-11-28T13:11:29.372Z,97996.81
2022-11-28T13:14:18.395Z,97991.19
2022-11-28T13:16:51.749Z,97987.34
2022-11-28T13:19:54.199Z,97984.94
2022-11-28T13:22:25.557Z,97982.66
2022-11-28T13:25:15.543Z,97995.44
2022-11-28T13:27:54.439Z,97992.53
2022-11-28T13:30:29.279Z,97992.28
2022-11-28T13:33:48.968Z,97993.00
2022-11-28T13:40:08.242Z,97991.88
2022-11-28T13:43:11.224Z,97987.56
2022-11-28T13:45:47.530Z,97991.78
2022-11-28T13:51:33.753Z,97986.97
2022-11-28T13:54:19.816Z,97985.06
2022-11-28T13:57:15.075Z,97988.06
2022-11-28T14:00:01.749Z,97983.63
2022-11-28T14:02:49.494Z,97977.53
2022-11-28T14:05:27.609Z,97984.50
2022-11-28T14:07:56.698Z,97981.50
2022-11-28T14:10:47.094Z,97979.44
2022-11-28T14:13:44.760Z,97969.63
2022-11-28T14:16:51.385Z,97972.75
2022-11-28T14:19:40.926Z,97968.31
2022-11-28T14:22:46.656Z,97965.69
2022-11-28T14:25:33.846Z,97962.09
2022-11-28T14:28:16.175Z,97962.72
2022-11-28T14:30:45.493Z,97968.91
2022-11-28T14:33:36.624Z,97968.22
2022-11-28T14:36:42.083Z,97967.13
2022-11-28T14:39:14.994Z,97969.28
2022-11-28T14:45:44.500Z,97968.44
2022-11-28T14:48:23.446Z,97970.00
2022-11-28T14:51:00.595Z,97964.59
2022-11-28T14:53:34.842Z,97973.72
2022-11-28T14:56:14.919Z,97963.63
2022-11-28T14:58:56.186Z,97974.34
2022-11-28T15:02:10.663Z,97966.31
2022-11-28T15:05:27.703Z,97975.41
2022-11-28T15:08:26.771Z,97970.34
2022-11-28T15:11:02.927Z,97963.88
2022-11-28T15:14:07.623Z,97961.47
2022-11-28T15:16:36.928Z,97963.59
2022-11-28T15:19:29.005Z,97959.50
2022-11-28T15:21:56.393Z,97954.25
2022-11-28T15:24:30.611Z,97954.97
2022-11-28T15:27:10.072Z,97949.00
2022-11-28T15:29:37.702Z,97957.34
2022-11-28T15:32:05.699Z,97951.91
2022-11-28T15:34:35.142Z,97953.50
2022-11-28T15:37:14.307Z,97950.91
2022-11-28T15:39:42.997Z,97946.72
2022-11-28T15:42:25.604Z,97951.41
2022-11-28T15:45:26.948Z,97943.53
2022-11-28T15:47:56.082Z,97946.88
2022-11-28T15:50:32.221Z,97936.34
2022-11-28T15:53:03.804Z,97935.50
2022-11-28T15:55:33.872Z,97935.88
2022-11-28T15:58:33.433Z,97936.84
2022-11-28T16:01:27.055Z,97940.06
2022-11-28T16:04:04.008Z,97936.22
2022-11-28T16:06:38.336Z,97940.50
2022-11-28T16:09:17.529Z,97941.09
2022-11-28T16:11:50.250Z,97950.78
2022-11-28T16:14:35.916Z,97939.88
2022-11-28T16:17:14.404Z,97941.06
2022-11-28T16:19:44.552Z,97946.34
2022-11-28T16:22:19.491Z,97943.72
2022-11-28T16:24:56.207Z,97946.66
2022-11-28T16:27:34.519Z,97947.41
2022-11-28T16:30:23.599Z,97943.41
2022-11-28T16:32:53.853Z,97940.94
2022-11-28T16:35:41.651Z,97942.81
2022-11-28T16:38:23.496Z,97930.56
2022-11-28T16:40:52.267Z,97927.59
2022-11-28T16:43:40.173Z,97931.91
2022-11-28T16:46:19.761Z,97925.00
2022-11-28T16:48:56.635Z,97938.44
2022-11-28T16:51:26.580Z,97931.16
2022-11-28T16:53:59.611Z,97943.97
2022-11-28T16:56:29.584Z,97940.78
2022-11-28T16:59:18.843Z,97945.53
2022-11-28T17:01:53.533Z,97945.03
2022-11-28T17:04:27.442Z,97938.31
2022-11-28T17:06:57.768Z,97950.75
2022-11-28T17:09:25.000Z,97950.25
2022-11-28T17:12:03.624Z,97954.78
2022-11-28T17:14:30.628Z,97939.53
2022-11-28T17:16:57.631Z,97942.16
2022-11-28T17:19:24.787Z,97943.28
2022-11-28T17:21:59.365Z,97949.19
2022-11-28T17:24:34.933Z,97944.78
2022-11-28T17:27:03.441Z,97947.16
2022-11-28T17:29:30.701Z,97950.50
2022-11-28T17:31:58.879Z,97949.03
2022-11-28T17:34:32.395Z,97947.44
2022-11-28T17:37:02.044Z,97952.50
2022-11-28T17:39:29.737Z,97953.19
2022-11-28T17:41:57.912Z,97955.53
2022-11-28T17:44:30.313Z,97954.81
2022-11-28T17:47:00.478Z,97949.19
2022-11-28T17:49:28.062Z,97951.22
2022-11-28T17:51:55.973Z,97949.22
2022-11-28T17:54:25.891Z,97953.75
2022-11-28T17:56:54.264Z,97938.41
2022-11-28T17:59:23.725Z,97946.81
2022-11-28T18:01:50.809Z,97945.25
2022-11-28T18:04:23.677Z,97955.56
2022-11-28T18:06:50.671Z,97948.34
2022-11-28T18:09:17.623Z,97953.34
2022-11-28T18:11:46.762Z,97969.72
2022-11-28T18:14:14.700Z,97963.94
2022-11-28T18:16:43.926Z,97963.44
2022-11-28T18:19:11.390Z,97963.50
2022-11-28T18:21:38.912Z,97957.69
2022-11-28T18:24:06.312Z,97963.22
2022-11-28T18:26:33.594Z,97957.38
2022-11-28T18:29:00.949Z,97964.72
2022-11-28T18:31:29.829Z,97971.44
2022-11-28T18:34:05.039Z,97965.97
2022-11-28T18:36:37.995Z,97963.66
2022-11-28T18:39:11.316Z,97967.34
2022-11-28T18:41:39.914Z,97963.66
2022-11-28T18:44:07.898Z,97962.31
2022-11-28T18:46:35.603Z,97961.03
2022-11-28T18:49:03.328Z,97964.16
2022-11-28T18:51:33.229Z,97965.25
2022-11-28T18:54:04.977Z,97962.00
2022-11-28T18:56:34.113Z,97961.34
2022-11-28T18:59:01.102Z,97961.03
2022-11-28T19:01:34.611Z,97964.38
2022-11-28T19:04:07.890Z,97968.47
2022-11-28T19:06:40.272Z,97963.31
2022-11-28T19:09:14.234Z,97961.34
2022-11-28T19:11:42.162Z,97966.78
2022-11-28T19:14:15.484Z,97962.88
2022-11-28T19:16:43.700Z,97963.09
2022-11-28T19:19:16.232Z,97960.88
2022-11-28T19:21:43.509Z,97960.59
2022-11-28T19:24:13.017Z,97958.00
2022-11-28T19:26:40.507Z,97958.69
2022-11-28T19:29:08.092Z,97959.75
2022-11-28T19:31:37.497Z,97962.59
2022-11-28T19:34:11.722Z,97965.97
2022-11-28T19:36:43.017Z,97959.66
2022-11-28T19:39:16.977Z,97962.81
2022-11-28T19:41:45.490Z,97958.53
2022-11-28T19:44:13.589Z,97956.09
2022-11-28T19:46:41.825Z,97961.88
2022-11-28T19:49:21.238Z,97953.44
2022-11-28T19:51:50.360Z,97959.00
2022-11-28T19:54:21.628Z,97958.25
2022-11-28T19:56:49.774Z,97960.31
2022-11-28T19:59:18.213Z,97959.06
2022-11-28T20:01:48.213Z,97961.00
2022-11-28T20:04:16.168Z,97960.69
2022-11-28T20:06:43.538Z,97963.63
2022-11-28T20:09:13.693Z,97971.16
2022-11-28T20:11:43.743Z,97971.50
2022-11-28T20:14:14.522Z,97968.75
2022-11-28T20:16:41.932Z,97966.47
2022-11-28T20:19:11.606Z,97970.72
2022-11-28T20:21:39.152Z,97977.84
2022-11-28T20:24:07.559Z,97971.53
2022-11-28T20:26:41.388Z,97974.16
2022-11-28T20:29:13.470Z,97976.28
2022-11-28T20:31:46.764Z,97966.91
2022-11-28T20:34:17.594Z,97973.44
2022-11-28T20:36:51.115Z,97971.53
2022-11-28T20:39:18.816Z,97976.16
2022-11-28T20:41:45.901Z,97974.81
2022-11-28T20:44:12.899Z,97981.00
2022-11-28T20:46:40.351Z,97986.22
2022-11-28T20:49:07.904Z,97987.81
2022-11-28T20:51:36.120Z,97983.50
2022-11-28T20:54:05.123Z,97980.38
2022-11-28T20:57:04.991Z,97983.38
2022-11-28T20:59:26.085Z,97987.03
2022-11-28T21:01:53.103Z,97992.19
2022-11-28T21:04:20.204Z,97992.00
2022-11-28T21:06:49.120Z,97985.72
2022-11-28T21:09:18.017Z,97993.06
2022-11-28T21:12:01.802Z,97994.75
2022-11-28T21:14:29.456Z,97990.44
2022-11-28T21:16:57.767Z,97997.59
2022-11-28T21:19:25.012Z,97994.22
2022-11-28T21:21:52.178Z,97997.91
2022-11-28T21:24:19.121Z,97995.88
2022-11-28T21:26:51.403Z,97993.16
2022-11-28T21:29:20.578Z,98000.22
2022-11-28T21:31:47.635Z,98001.56
2022-11-28T21:34:16.529Z,97996.50
2022-11-28T21:36:44.109Z,98004.16
2022-11-28T21:39:15.383Z,97999.28
2022-11-28T21:41:42.503Z,98003.75
2022-11-28T21:44:09.678Z,98002.22
2022-11-28T21:46:36.864Z,98000.59
2022-11-28T21:49:04.092Z,97997.25
2022-11-28T21:51:31.025Z,98003.13
2022-11-28T21:53:58.206Z,97991.63
2022-11-28T21:56:25.959Z,98007.38
2022-11-28T21:58:54.145Z,98002.81
2022-11-28T22:01:21.520Z,98009.38
2022-11-28T22:03:49.455Z,98000.84
2022-11-28T22:06:25.643Z,98001.38
2022-11-28T22:08:54.856Z,97994.84
2022-11-28T22:11:22.771Z,98000.84
2022-11-28T22:13:50.513Z,98004.44
2022-11-28T22:16:29.519Z,97998.63
2022-11-28T22:18:59.762Z,98003.47
2022-11-28T22:24:14.369Z,97998.63
2022-11-28T22:26:41.501Z,98005.13
2022-11-28T22:29:08.907Z,98008.09
2022-11-28T22:31:36.191Z,98004.09
2022-11-28T22:34:03.483Z,98007.03
2022-11-28T22:36:32.035Z,98011.66
2022-11-28T22:38:59.507Z,98003.91
2022-11-28T22:41:29.719Z,97998.97
2022-11-28T22:44:01.437Z,98007.97
2022-11-28T22:46:30.864Z,98001.91
2022-11-28T22:49:00.373Z,98009.69
2022-11-28T22:51:29.383Z,98018.44
2022-11-28T22:53:59.285Z,98014.56
2022-11-28T22:56:28.774Z,98012.69
2022-11-28T22:58:55.969Z,98013.59
2022-11-28T23:01:27.684Z,98015.59
2022-11-28T23:03:55.645Z,98021.16
2022-11-28T23:06:28.293Z,98016.22
2022-11-28T23:08:57.361Z,98016.97
2022-11-28T23:11:30.360Z,98020.41
2022-11-28T23:13:59.009Z,98021.47
2022-11-28T23:16:31.539Z,98022.81
2022-11-28T23:19:04.680Z,98021.78
2022-11-28T23:21:36.924Z,98019.81
2022-11-28T23:24:06.267Z,98022.47
2022-11-28T23:26:34.346Z,98012.50
2022-11-28T23:29:05.356Z,98013.22
2022-11-28T23:31:38.271Z,98015.03
2022-11-28T23:34:06.957Z,98012.81
2022-11-28T23:36:41.873Z,98017.44
2022-11-28T23:39:17.699Z,98015.13
2022-11-28T23:41:45.386Z,98013.03
2022-11-28T23:44:14.189Z,98012.00
2022-11-28T23:46:42.011Z,98011.13
2022-11-28T23:49:09.655Z,98021.38
2022-11-28T23:51:38.016Z,98016.97
2022-11-28T23:54:05.031Z,98014.63
2022-11-28T23:56:34.861Z,98020.72
2022-11-28T23:59:04.596Z,98027.00
